This is the latest recevied weather packets stored in our database for station/object WC0AA-WX. If no packets are shown the sender has not sent any weather packets the latest 10 day(s).
| Time | Temp. | Humidity | Pressure | Rain* | Wind** | Luminosity | Snow |
|---|---|---|---|---|---|---|---|
| 1777886691 | 10.56° C | 77% | 1003.8 hPa | 0 mm | - | - | - |
| 1777885489 | 10.56° C | 78% | 1004 hPa | 0 mm | - | - | - |
| 1777884287 | 10.56° C | 78% | 1004.4 hPa | 0 mm | - | - | - |
| 1777882484 | 11.67° C | 69% | 1004.9 hPa | 0 mm | - | - | - |
| 1777881883 | 11.67° C | 69% | 1005.1 hPa | 0 mm | - | - | - |
| 1777879479 | 12.22° C | 68% | 1005.5 hPa | 0 mm | - | - | - |
| 1777878878 | 12.22° C | 65% | 1005.7 hPa | 0 mm | - | - | - |
| 1777878277 | 12.78° C | 63% | 1006.1 hPa | 0 mm | - | - | - |
| 1777876474 | 13.89° C | 57% | 1006.4 hPa | 0 mm | - | - | - |
| 1777875873 | 14.44° C | 57% | 1006.5 hPa | 0 mm | - | - | - |
| 1777875272 | 15° C | 57% | 1006.7 hPa | 0 mm | - | - | - |
| 1777874671 | 15.56° C | 53% | 1006.8 hPa | 0 mm | - | - | - |
| 1777874070 | 15.56° C | 52% | 1006.9 hPa | 0 mm | - | - | - |
| 1777873468 | 15.56° C | 51% | 1006.9 hPa | 0 mm | - | - | - |
| 1777872867 | 16.11° C | 50% | 1006.9 hPa | 0 mm | - | - | - |
| 1777872266 | 16.67° C | 50% | 1007.1 hPa | 0 mm | - | - | - |
| 1777869863 | 17.78° C | 46% | 1006.9 hPa | 0 mm | - | - | - |
| 1777869262 | 17.78° C | 47% | 1007 hPa | 0 mm | - | - | - |
| 1777868661 | 17.78° C | 47% | 1007.1 hPa | 0 mm | - | - | - |
| 1777868060 | 17.78° C | 47% | 1007.3 hPa | 0 mm | - | - | - |
| 1777867459 | 18.33° C | 47% | 1007.6 hPa | 0 mm | - | - | - |
| 1777866858 | 17.78° C | 47% | 1007.8 hPa | 0 mm | - | - | - |
| 1777866257 | 17.22° C | 49% | 1008.2 hPa | 0 mm | - | - | - |
| 1777865657 | 17.78° C | 49% | 1008.2 hPa | 0 mm | - | - | - |
| 1777865055 | 17.78° C | 48% | 1008.4 hPa | 0 mm | - | - | - |
* Rain latest hour (hover to see other rain measurements)
** Current wind speed in m/s (hover to see current wind gust speed)